This is the latest recevied weather packets stored in our database for station/object DB0MW-13. If no packets are shown the sender has not sent any weather packets the latest 10 day(s).
| Time | Temp. | Humidity | Pressure | Rain* | Wind** | Luminosity | Snow |
|---|---|---|---|---|---|---|---|
| 1777585501 | 11.67° C | 45% | 1027.7 hPa | 0 mm | - | - | - |
| 1777585201 | 11.67° C | 44% | 1027.7 hPa | 0 mm | - | - | - |
| 1777584601 | 11.67° C | 45% | 1027.6 hPa | 0 mm | - | - | - |
| 1777584300 | 12.22° C | 46% | 1027.7 hPa | 0 mm | - | - | - |
| 1777584000 | 12.22° C | 45% | 1027.6 hPa | 0 mm | - | - | - |
| 1777583700 | 12.22° C | 45% | 1027.5 hPa | 0 mm | - | - | - |
| 1777580701 | 13.33° C | 40% | 1027.6 hPa | 0 mm | - | - | - |
| 1777580400 | 13.89° C | 39% | 1027.5 hPa | 0 mm | - | - | - |
| 1777580101 | 13.89° C | 39% | 1027.6 hPa | 0 mm | - | - | - |
| 1777579800 | 13.89° C | 38% | 1027.5 hPa | 0 mm | - | - | - |
| 1777579500 | 14.44° C | 38% | 1027.5 hPa | 0 mm | - | - | - |
| 1777577700 | 15.56° C | 34% | 1027.2 hPa | 0 mm | - | - | - |
| 1777577400 | 15.56° C | 34% | 1027.4 hPa | 0 mm | - | - | - |
| 1777577100 | 15.56° C | 33% | 1027.4 hPa | 0 mm | - | - | - |
| 1777576800 | 15.56° C | 33% | 1027.2 hPa | 0 mm | - | - | - |
| 1777576500 | 16.11° C | 32% | 1027 hPa | 0 mm | - | - | - |
| 1777576200 | 16.11° C | 32% | 1027.3 hPa | 0 mm | - | - | - |
| 1777575900 | 16.11° C | 31% | 1027.1 hPa | 0 mm | - | - | - |
| 1777575301 | 16.67° C | 30% | 1027 hPa | 0 mm | - | - | - |
| 1777574101 | 16.67° C | 28% | 1026.8 hPa | 0 mm | - | - | - |
| 1777573801 | 17.22° C | 28% | 1026.8 hPa | 0 mm | - | - | - |
| 1777573201 | 17.22° C | 27% | 1026.9 hPa | 0 mm | - | - | - |
| 1777572901 | 17.22° C | 27% | 1026.7 hPa | 0 mm | - | - | - |
| 1777572601 | 17.78° C | 26% | 1026.5 hPa | 0 mm | - | - | - |
| 1777572001 | 17.78° C | 26% | 1026.8 hPa | 0 mm | - | - | - |
* Rain latest hour (hover to see other rain measurements)
** Current wind speed in m/s (hover to see current wind gust speed)